sensor_id;sensor_type;location;lat;lon;timestamp;pressure;altitude;pressure_sealevel;temperature;humidity
50652;BME280;61429;52.086;5.240;2022-12-10T00:01:14;100720.0;;;1.86;80.05
50652;BME280;61429;52.086;5.240;2022-12-10T00:02:54;100724.0;;;1.95;79.48
50652;BME280;61429;52.086;5.240;2022-12-10T00:04:30;100719.0;;;2.02;79.61
50652;BME280;61429;52.086;5.240;2022-12-10T00:07:47;100718.0;;;2.1;79.03
50652;BME280;61429;52.086;5.240;2022-12-10T00:09:23;100718.0;;;2.05;79.12
50652;BME280;61429;52.086;5.240;2022-12-10T07:24:57;100852.0;;;1.66;82.76
50652;BME280;61429;52.086;5.240;2022-12-10T07:26:35;100855.0;;;1.77;82.45
50652;BME280;61429;52.086;5.240;2022-12-10T07:28:12;100858.0;;;1.71;82.47
50652;BME280;61429;52.086;5.240;2022-12-10T07:29:49;100857.0;;;1.84;82.27
50652;BME280;61429;52.086;5.240;2022-12-10T07:33:03;100858.0;;;1.82;82.15
50652;BME280;61429;52.086;5.240;2022-12-10T07:34:40;100860.0;;;1.71;81.96
50652;BME280;61429;52.086;5.240;2022-12-10T07:36:16;100867.0;;;1.48;81.88
50652;BME280;61429;52.086;5.240;2022-12-10T07:39:29;100868.0;;;1.48;82.11
50652;BME280;61429;52.086;5.240;2022-12-10T07:41:08;100861.0;;;1.64;82.06
50652;BME280;61429;52.086;5.240;2022-12-10T07:42:44;100866.0;;;1.46;82.58
50652;BME280;61429;52.086;5.240;2022-12-10T07:46:03;100868.0;;;1.6;82.19
50652;BME280;61429;52.086;5.240;2022-12-10T07:47:40;100864.0;;;1.64;81.84
50652;BME280;61429;52.086;5.240;2022-12-10T07:49:16;100866.0;;;1.73;82.01
50652;BME280;61429;52.086;5.240;2022-12-10T07:52:32;100868.0;;;1.73;82.24
50652;BME280;61429;52.086;5.240;2022-12-10T07:54:08;100868.0;;;1.62;82.29
50652;BME280;61429;52.086;5.240;2022-12-10T07:55:44;100870.0;;;1.6;82.67
50652;BME280;61429;52.086;5.240;2022-12-10T07:57:21;100866.0;;;1.62;82.58
50652;BME280;61429;52.086;5.240;2022-12-10T08:00:33;100869.0;;;1.63;82.32
50652;BME280;61429;52.086;5.240;2022-12-10T08:02:09;100872.0;;;1.57;82.5
50652;BME280;61429;52.086;5.240;2022-12-10T08:03:45;100871.0;;;1.62;82.21
50652;BME280;61429;52.086;5.240;2022-12-10T08:05:21;100868.0;;;1.54;82.58
50652;BME280;61429;52.086;5.240;2022-12-10T08:08:34;100864.0;;;1.65;82.51
50652;BME280;61429;52.086;5.240;2022-12-10T08:10:10;100863.0;;;1.63;82.3
50652;BME280;61429;52.086;5.240;2022-12-10T08:11:46;100860.0;;;1.63;82.07
50652;BME280;61429;52.086;5.240;2022-12-10T08:14:59;100860.0;;;1.54;82.44
50652;BME280;61429;52.086;5.240;2022-12-10T08:16:35;100863.0;;;1.63;82.15
50652;BME280;61429;52.086;5.240;2022-12-10T08:19:47;100864.0;;;1.66;82.31
50652;BME280;61429;52.086;5.240;2022-12-10T08:21:26;100866.0;;;1.66;82.75
50652;BME280;61429;52.086;5.240;2022-12-10T08:23:03;100870.0;;;1.69;82.43
50652;BME280;61429;52.086;5.240;2022-12-10T08:24:40;100873.0;;;1.67;81.74
50652;BME280;61429;52.086;5.240;2022-12-10T08:26:18;100873.0;;;1.72;81.92
50652;BME280;61429;52.086;5.240;2022-12-10T08:29:33;100874.0;;;1.84;81.58
50652;BME280;61429;52.086;5.240;2022-12-10T08:31:10;100877.0;;;1.68;81.3
50652;BME280;61429;52.086;5.240;2022-12-10T08:32:48;100878.0;;;1.7;81.19
50652;BME280;61429;52.086;5.240;2022-12-10T08:36:01;100881.0;;;1.72;81.17
50652;BME280;61429;52.086;5.240;2022-12-10T08:37:40;100883.0;;;1.75;81.12
50652;BME280;61429;52.086;5.240;2022-12-10T08:39:16;100885.0;;;1.73;80.8
50652;BME280;61429;52.086;5.240;2022-12-10T08:42:30;100895.0;;;1.65;80.77
50652;BME280;61429;52.086;5.240;2022-12-10T08:44:06;100898.0;;;1.73;80.69
50652;BME280;61429;52.086;5.240;2022-12-10T08:45:42;100898.0;;;1.87;80.44
50652;BME280;61429;52.086;5.240;2022-12-10T08:47:18;100905.0;;;1.73;80.7
50652;BME280;61429;52.086;5.240;2022-12-10T08:50:31;100912.0;;;1.81;80.61
50652;BME280;61429;52.086;5.240;2022-12-10T08:52:07;100907.0;;;1.91;80.45
50652;BME280;61429;52.086;5.240;2022-12-10T08:53:44;100915.0;;;1.89;80.09
50652;BME280;61429;52.086;5.240;2022-12-10T08:56:56;100914.0;;;2.07;79.69
50652;BME280;61429;52.086;5.240;2022-12-10T08:58:33;100917.0;;;1.92;79.86
50652;BME280;61429;52.086;5.240;2022-12-10T09:00:10;100918.0;;;1.93;79.78
50652;BME280;61429;52.086;5.240;2022-12-10T09:01:47;100925.0;;;1.88;79.81
50652;BME280;61429;52.086;5.240;2022-12-10T09:05:01;100922.0;;;1.96;79.72
50652;BME280;61429;52.086;5.240;2022-12-10T09:06:37;100928.0;;;1.92;79.44
50652;BME280;61429;52.086;5.240;2022-12-10T09:09:50;100932.0;;;1.86;79.61
50652;BME280;61429;52.086;5.240;2022-12-10T09:11:28;100932.0;;;2.0;79.23
50652;BME280;61429;52.086;5.240;2022-12-10T09:13:05;100938.0;;;1.82;79.59
50652;BME280;61429;52.086;5.240;2022-12-10T09:14:42;100937.0;;;1.77;79.37
50652;BME280;61429;52.086;5.240;2022-12-10T09:17:56;100942.0;;;1.69;79.66
50652;BME280;61429;52.086;5.240;2022-12-10T09:19:32;100939.0;;;1.77;79.5
50652;BME280;61429;52.086;5.240;2022-12-10T09:21:10;100940.0;;;1.89;79.34
50652;BME280;61429;52.086;5.240;2022-12-10T09:22:50;100946.0;;;1.9;79.09
50652;BME280;61429;52.086;5.240;2022-12-10T09:26:05;100943.0;;;1.88;78.69
50652;BME280;61429;52.086;5.240;2022-12-10T09:27:43;100945.0;;;1.93;78.47
50652;BME280;61429;52.086;5.240;2022-12-10T09:29:20;100943.0;;;1.94;78.58
50652;BME280;61429;52.086;5.240;2022-12-10T09:32:34;100945.0;;;1.99;78.3
50652;BME280;61429;52.086;5.240;2022-12-10T09:34:10;100949.0;;;2.02;78.27
50652;BME280;61429;52.086;5.240;2022-12-10T09:35:46;100952.0;;;1.99;78.3
50652;BME280;61429;52.086;5.240;2022-12-10T09:37:22;100958.0;;;1.87;78.62
50652;BME280;61429;52.086;5.240;2022-12-10T09:40:38;100959.0;;;1.95;78.77
50652;BME280;61429;52.086;5.240;2022-12-10T09:42:25;100961.0;;;2.06;78.75
50652;BME280;61429;52.086;5.240;2022-12-10T09:44:11;100955.0;;;2.17;78.45
50652;BME280;61429;52.086;5.240;2022-12-10T09:45:58;100956.0;;;2.04;78.24
50652;BME280;61429;52.086;5.240;2022-12-10T09:49:37;100961.0;;;2.06;78.25
50652;BME280;61429;52.086;5.240;2022-12-10T09:51:21;100952.0;;;2.14;78.03
50652;BME280;61429;52.086;5.240;2022-12-10T09:53:00;100957.0;;;2.05;78.11
50652;BME280;61429;52.086;5.240;2022-12-10T09:54:40;100958.0;;;2.05;78.22
50652;BME280;61429;52.086;5.240;2022-12-10T09:56:22;100955.0;;;2.02;78.08
50652;BME280;61429;52.086;5.240;2022-12-10T09:59:40;100957.0;;;1.89;78.13
50652;BME280;61429;52.086;5.240;2022-12-10T10:01:19;100961.0;;;1.95;78.11
50652;BME280;61429;52.086;5.240;2022-12-10T10:03:01;100962.0;;;1.94;78.3
50652;BME280;61429;52.086;5.240;2022-12-10T10:04:39;100962.0;;;1.91;78.38
50652;BME280;61429;52.086;5.240;2022-12-10T10:07:55;100960.0;;;1.93;78.75
50652;BME280;61429;52.086;5.240;2022-12-10T10:09:38;100960.0;;;1.85;78.92
50652;BME280;61429;52.086;5.240;2022-12-10T10:11:19;100965.0;;;1.92;78.86
50652;BME280;61429;52.086;5.240;2022-12-10T10:13:00;100969.0;;;1.99;78.87
50652;BME280;61429;52.086;5.240;2022-12-10T10:16:20;100974.0;;;2.0;79.0
50652;BME280;61429;52.086;5.240;2022-12-10T10:18:02;100966.0;;;2.04;78.8
50652;BME280;61429;52.086;5.240;2022-12-10T10:19:41;100966.0;;;1.94;78.69
50652;BME280;61429;52.086;5.240;2022-12-10T10:21:21;100971.0;;;1.95;79.05
50652;BME280;61429;52.086;5.240;2022-12-10T10:24:39;100969.0;;;2.0;79.23
50652;BME280;61429;52.086;5.240;2022-12-10T10:26:16;100970.0;;;2.02;78.8
50652;BME280;61429;52.086;5.240;2022-12-10T10:27:53;100970.0;;;2.1;78.25
50652;BME280;61429;52.086;5.240;2022-12-10T10:31:16;100970.0;;;2.07;78.33
50652;BME280;61429;52.086;5.240;2022-12-10T10:32:56;100973.0;;;2.13;77.69
50652;BME280;61429;52.086;5.240;2022-12-10T10:34:33;100970.0;;;2.13;77.67
50652;BME280;61429;52.086;5.240;2022-12-10T10:36:09;100974.0;;;2.12;78.33
50652;BME280;61429;52.086;5.240;2022-12-10T10:41:04;100968.0;;;2.29;78.17
50652;BME280;61429;52.086;5.240;2022-12-10T10:42:42;100969.0;;;2.31;78.13
50652;BME280;61429;52.086;5.240;2022-12-10T10:44:22;100966.0;;;2.37;78.08
50652;BME280;61429;52.086;5.240;2022-12-10T10:47:42;100970.0;;;2.35;78.05
50652;BME280;61429;52.086;5.240;2022-12-10T10:49:22;100967.0;;;2.42;78.24
50652;BME280;61429;52.086;5.240;2022-12-10T10:51:06;100976.0;;;2.34;78.02
50652;BME280;61429;52.086;5.240;2022-12-10T10:52:44;100974.0;;;2.31;77.69
50652;BME280;61429;52.086;5.240;2022-12-10T10:56:19;100969.0;;;2.27;77.77
50652;BME280;61429;52.086;5.240;2022-12-10T10:57:56;100973.0;;;2.25;77.87
50652;BME280;61429;52.086;5.240;2022-12-10T10:59:34;100972.0;;;2.21;78.13
50652;BME280;61429;52.086;5.240;2022-12-10T11:01:11;100973.0;;;2.19;77.86
50652;BME280;61429;52.086;5.240;2022-12-10T11:04:29;100972.0;;;2.11;78.17
50652;BME280;61429;52.086;5.240;2022-12-10T11:06:07;100977.0;;;2.16;78.3
50652;BME280;61429;52.086;5.240;2022-12-10T11:07:43;100973.0;;;2.08;78.44
50652;BME280;61429;52.086;5.240;2022-12-10T11:11:04;100970.0;;;2.19;78.52
50652;BME280;61429;52.086;5.240;2022-12-10T11:12:44;100970.0;;;2.23;78.47
50652;BME280;61429;52.086;5.240;2022-12-10T11:14:31;100970.0;;;2.29;78.75
50652;BME280;61429;52.086;5.240;2022-12-10T11:16:12;100973.0;;;2.31;78.52
50652;BME280;61429;52.086;5.240;2022-12-10T11:17:55;100975.0;;;2.23;78.24
50652;BME280;61429;52.086;5.240;2022-12-10T11:21:17;100980.0;;;2.07;78.97
50652;BME280;61429;52.086;5.240;2022-12-10T11:22:55;100975.0;;;2.19;78.5
50652;BME280;61429;52.086;5.240;2022-12-10T11:24:32;100972.0;;;2.19;78.25
50652;BME280;61429;52.086;5.240;2022-12-10T11:26:24;100972.0;;;2.19;78.17
50652;BME280;61429;52.086;5.240;2022-12-10T11:29:58;100968.0;;;2.21;78.16
50652;BME280;61429;52.086;5.240;2022-12-10T11:31:49;100958.0;;;2.19;78.86
50652;BME280;61429;52.086;5.240;2022-12-10T11:33:38;100955.0;;;2.19;78.69
50652;BME280;61429;52.086;5.240;2022-12-10T11:35:27;100951.0;;;2.19;78.69
50652;BME280;61429;52.086;5.240;2022-12-10T11:37:22;100950.0;;;2.14;78.69
50652;BME280;61429;52.086;5.240;2022-12-10T11:41:08;100955.0;;;2.25;78.67
50652;BME280;61429;52.086;5.240;2022-12-10T11:43:04;100950.0;;;2.21;78.52
50652;BME280;61429;52.086;5.240;2022-12-10T11:46:49;100948.0;;;2.21;78.97
50652;BME280;61429;52.086;5.240;2022-12-10T11:49:10;100951.0;;;2.23;78.58
50652;BME280;61429;52.086;5.240;2022-12-10T11:50:59;100949.0;;;2.23;78.74
50652;BME280;61429;52.086;5.240;2022-12-10T11:52:47;100956.0;;;2.15;78.88
50652;BME280;61429;52.086;5.240;2022-12-10T11:54:42;100959.0;;;2.19;78.92
50652;BME280;61429;52.086;5.240;2022-12-10T11:56:34;100956.0;;;2.25;78.58
50652;BME280;61429;52.086;5.240;2022-12-10T11:58:23;100947.0;;;2.33;78.73
50652;BME280;61429;52.086;5.240;2022-12-10T12:00:18;100955.0;;;2.44;78.61
50652;BME280;61429;52.086;5.240;2022-12-10T12:02:10;100957.0;;;2.44;78.34
50652;BME280;61429;52.086;5.240;2022-12-10T12:04:25;100956.0;;;2.4;78.16
50652;BME280;61429;52.086;5.240;2022-12-10T12:06:20;100956.0;;;2.23;78.72
50652;BME280;61429;52.086;5.240;2022-12-10T12:08:08;100955.0;;;2.29;78.62
50652;BME280;61429;52.086;5.240;2022-12-10T12:12:05;100958.0;;;2.37;78.41
50652;BME280;61429;52.086;5.240;2022-12-10T12:13:54;100961.0;;;2.32;78.55
50652;BME280;61429;52.086;5.240;2022-12-10T12:15:37;100958.0;;;2.29;78.47
50652;BME280;61429;52.086;5.240;2022-12-10T12:17:20;100957.0;;;2.19;78.77
50652;BME280;61429;52.086;5.240;2022-12-10T12:19:04;100959.0;;;2.17;78.61
50652;BME280;61429;52.086;5.240;2022-12-10T12:20:46;100955.0;;;2.17;78.63
50652;BME280;61429;52.086;5.240;2022-12-10T12:24:12;100955.0;;;2.16;78.95
50652;BME280;61429;52.086;5.240;2022-12-10T12:25:57;100953.0;;;2.21;78.73
50652;BME280;61429;52.086;5.240;2022-12-10T12:27:41;100955.0;;;2.25;78.69
50652;BME280;61429;52.086;5.240;2022-12-10T12:29:23;100952.0;;;2.23;78.78
50652;BME280;61429;52.086;5.240;2022-12-10T12:31:05;100955.0;;;2.25;78.84
50652;BME280;61429;52.086;5.240;2022-12-10T12:34:43;100957.0;;;2.27;78.78
50652;BME280;61429;52.086;5.240;2022-12-10T12:36:24;100960.0;;;2.31;78.59
50652;BME280;61429;52.086;5.240;2022-12-10T12:38:10;100961.0;;;2.19;79.08
50652;BME280;61429;52.086;5.240;2022-12-10T12:40:02;100953.0;;;2.31;78.83
50652;BME280;61429;52.086;5.240;2022-12-10T12:41:43;100958.0;;;2.16;79.42
50652;BME280;61429;52.086;5.240;2022-12-10T12:45:19;100959.0;;;2.25;79.13
50652;BME280;61429;52.086;5.240;2022-12-10T12:47:02;100956.0;;;2.33;78.75
50652;BME280;61429;52.086;5.240;2022-12-10T12:48:54;100955.0;;;2.38;78.72
50652;BME280;61429;52.086;5.240;2022-12-10T12:50:41;100957.0;;;2.38;78.77
50652;BME280;61429;52.086;5.240;2022-12-10T12:52:29;100953.0;;;2.4;79.16
50652;BME280;61429;52.086;5.240;2022-12-10T12:54:11;100956.0;;;2.42;78.84
50652;BME280;61429;52.086;5.240;2022-12-10T12:57:41;100956.0;;;2.37;78.61
50652;BME280;61429;52.086;5.240;2022-12-10T12:59:32;100955.0;;;2.32;78.61
50652;BME280;61429;52.086;5.240;2022-12-10T13:01:21;100952.0;;;2.34;79.06
50652;BME280;61429;52.086;5.240;2022-12-10T13:03:13;100952.0;;;2.32;79.47
50652;BME280;61429;52.086;5.240;2022-12-10T13:04:55;100953.0;;;2.31;78.94
50652;BME280;61429;52.086;5.240;2022-12-10T13:06:34;100949.0;;;2.35;79.36
50652;BME280;61429;52.086;5.240;2022-12-10T13:10:18;100949.0;;;2.39;79.23
50652;BME280;61429;52.086;5.240;2022-12-10T13:12:26;100955.0;;;2.4;79.44
50652;BME280;61429;52.086;5.240;2022-12-10T13:14:31;100957.0;;;2.44;79.63
50652;BME280;61429;52.086;5.240;2022-12-10T13:17:28;100955.0;;;2.36;79.41
50652;BME280;61429;52.086;5.240;2022-12-10T13:19:40;100955.0;;;2.38;79.55
50652;BME280;61429;52.086;5.240;2022-12-10T13:21:29;100955.0;;;2.31;79.55
50652;BME280;61429;52.086;5.240;2022-12-10T13:25:13;100957.0;;;2.42;79.66
50652;BME280;61429;52.086;5.240;2022-12-10T13:27:15;100957.0;;;2.48;79.55
50652;BME280;61429;52.086;5.240;2022-12-10T13:28:55;100956.0;;;2.52;79.31
50652;BME280;61429;52.086;5.240;2022-12-10T13:31:15;100951.0;;;2.58;79.23
50652;BME280;61429;52.086;5.240;2022-12-10T13:33:15;100953.0;;;2.59;79.27
50652;BME280;61429;52.086;5.240;2022-12-10T13:35:29;100957.0;;;2.54;79.0
50652;BME280;61429;52.086;5.240;2022-12-10T13:37:16;100960.0;;;2.4;79.56
50652;BME280;61429;52.086;5.240;2022-12-10T13:39:33;100953.0;;;2.38;79.59
50652;BME280;61429;52.086;5.240;2022-12-10T13:45:47;100967.0;;;2.52;79.23
50652;BME280;61429;52.086;5.240;2022-12-10T13:47:25;100970.0;;;2.56;79.02
50652;BME280;61429;52.086;5.240;2022-12-10T13:49:16;100968.0;;;2.6;78.97
50652;BME280;61429;52.086;5.240;2022-12-10T13:51:04;100973.0;;;2.52;79.38
50652;BME280;61429;52.086;5.240;2022-12-10T13:53:37;100969.0;;;2.54;79.12
50652;BME280;61429;52.086;5.240;2022-12-10T13:55:26;100973.0;;;2.6;78.86
50652;BME280;61429;52.086;5.240;2022-12-10T13:57:19;100976.0;;;2.54;78.99
50652;BME280;61429;52.086;5.240;2022-12-10T13:59:15;100974.0;;;2.42;78.99
50652;BME280;61429;52.086;5.240;2022-12-10T14:01:02;100976.0;;;2.38;79.34
50652;BME280;61429;52.086;5.240;2022-12-10T14:05:13;100977.0;;;2.56;78.97
50652;BME280;61429;52.086;5.240;2022-12-10T14:07:45;100976.0;;;2.6;78.99
50652;BME280;61429;52.086;5.240;2022-12-10T14:09:29;100977.0;;;2.56;79.0
50652;BME280;61429;52.086;5.240;2022-12-10T14:12:56;100980.0;;;2.5;79.11
50652;BME280;61429;52.086;5.240;2022-12-10T14:14:35;100984.0;;;2.48;79.16
50652;BME280;61429;52.086;5.240;2022-12-10T14:16:15;100985.0;;;2.61;79.05
50652;BME280;61429;52.086;5.240;2022-12-10T14:18:00;100984.0;;;2.44;79.33
50652;BME280;61429;52.086;5.240;2022-12-10T14:21:16;100983.0;;;2.48;79.39
50652;BME280;61429;52.086;5.240;2022-12-10T14:22:54;100981.0;;;2.48;79.55
50652;BME280;61429;52.086;5.240;2022-12-10T14:24:33;100985.0;;;2.54;79.19
50652;BME280;61429;52.086;5.240;2022-12-10T14:26:12;100987.0;;;2.57;79.2
50652;BME280;61429;52.086;5.240;2022-12-10T14:29:29;100996.0;;;2.56;79.3
50652;BME280;61429;52.086;5.240;2022-12-10T14:31:09;100999.0;;;2.5;79.72
50652;BME280;61429;52.086;5.240;2022-12-10T14:32:49;100996.0;;;2.58;79.61
50652;BME280;61429;52.086;5.240;2022-12-10T14:34:28;100998.0;;;2.61;79.23
50652;BME280;61429;52.086;5.240;2022-12-10T14:37:43;100997.0;;;2.61;79.17
50652;BME280;61429;52.086;5.240;2022-12-10T14:39:26;100996.0;;;2.65;78.88
50652;BME280;61429;52.086;5.240;2022-12-10T14:41:04;101000.0;;;2.61;79.03
50652;BME280;61429;52.086;5.240;2022-12-10T14:44:17;100997.0;;;2.39;79.37
50652;BME280;61429;52.086;5.240;2022-12-10T14:45:58;101001.0;;;2.56;79.23
50652;BME280;61429;52.086;5.240;2022-12-10T14:47:37;101005.0;;;2.37;79.64
50652;BME280;61429;52.086;5.240;2022-12-10T14:49:17;101009.0;;;2.5;79.33
50652;BME280;61429;52.086;5.240;2022-12-10T14:52:41;101014.0;;;2.44;79.49
50652;BME280;61429;52.086;5.240;2022-12-10T14:54:28;100998.0;;;2.44;79.69
50652;BME280;61429;52.086;5.240;2022-12-10T14:56:07;101000.0;;;2.56;79.45
50652;BME280;61429;52.086;5.240;2022-12-10T14:57:49;101002.0;;;2.5;80.0
50652;BME280;61429;52.086;5.240;2022-12-10T14:59:36;101003.0;;;2.6;79.72
50652;BME280;61429;52.086;5.240;2022-12-10T15:03:08;101002.0;;;2.73;79.25
50652;BME280;61429;52.086;5.240;2022-12-10T15:04:48;101005.0;;;2.7;79.23
50652;BME280;61429;52.086;5.240;2022-12-10T15:06:25;101005.0;;;2.64;79.27
50652;BME280;61429;52.086;5.240;2022-12-10T15:08:04;101007.0;;;2.71;79.2
50652;BME280;61429;52.086;5.240;2022-12-10T15:11:19;101015.0;;;2.78;79.05
50652;BME280;61429;52.086;5.240;2022-12-10T15:12:57;101019.0;;;2.67;79.52
50652;BME280;61429;52.086;5.240;2022-12-10T15:14:36;101016.0;;;2.67;79.24
50652;BME280;61429;52.086;5.240;2022-12-10T15:16:16;101011.0;;;2.6;79.5
50652;BME280;61429;52.086;5.240;2022-12-10T15:19:35;101009.0;;;2.58;79.69
50652;BME280;61429;52.086;5.240;2022-12-10T15:21:15;101007.0;;;2.59;79.44
50652;BME280;61429;52.086;5.240;2022-12-10T15:23:07;101008.0;;;2.56;79.7
50652;BME280;61429;52.086;5.240;2022-12-10T15:24:45;101006.0;;;2.69;79.31
50652;BME280;61429;52.086;5.240;2022-12-10T15:28:00;101007.0;;;2.78;79.19
50652;BME280;61429;52.086;5.240;2022-12-10T15:29:37;101008.0;;;2.67;79.55
50652;BME280;61429;52.086;5.240;2022-12-10T15:31:20;101005.0;;;2.73;79.52
50652;BME280;61429;52.086;5.240;2022-12-10T15:32:57;101009.0;;;2.69;79.58
50652;BME280;61429;52.086;5.240;2022-12-10T15:36:22;101011.0;;;2.69;79.66
50652;BME280;61429;52.086;5.240;2022-12-10T15:38:03;101014.0;;;2.5;80.3
50652;BME280;61429;52.086;5.240;2022-12-10T15:39:45;101015.0;;;2.58;80.05
50652;BME280;61429;52.086;5.240;2022-12-10T15:41:32;101013.0;;;2.66;80.06
50652;BME280;61429;52.086;5.240;2022-12-10T15:45:16;101012.0;;;2.75;79.83
50652;BME280;61429;52.086;5.240;2022-12-10T15:47:00;101014.0;;;2.69;79.98
50652;BME280;61429;52.086;5.240;2022-12-10T15:48:37;101020.0;;;2.74;80.03
50652;BME280;61429;52.086;5.240;2022-12-10T15:50:13;101015.0;;;2.77;79.81
50652;BME280;61429;52.086;5.240;2022-12-10T15:51:50;101016.0;;;2.74;80.02
50652;BME280;61429;52.086;5.240;2022-12-10T15:55:14;101017.0;;;2.71;80.25
50652;BME280;61429;52.086;5.240;2022-12-10T15:56:50;101012.0;;;2.73;80.06
50652;BME280;61429;52.086;5.240;2022-12-10T15:58:26;101011.0;;;2.72;80.22
50652;BME280;61429;52.086;5.240;2022-12-10T16:01:44;101015.0;;;2.71;80.25
50652;BME280;61429;52.086;5.240;2022-12-10T16:03:22;101022.0;;;2.8;80.12
50652;BME280;61429;52.086;5.240;2022-12-10T16:05:11;101018.0;;;2.78;80.17
50652;BME280;61429;52.086;5.240;2022-12-10T16:06:49;101014.0;;;2.74;80.25
50652;BME280;61429;52.086;5.240;2022-12-10T16:10:05;101015.0;;;2.76;80.44
50652;BME280;61429;52.086;5.240;2022-12-10T16:11:42;101019.0;;;2.71;80.47
50652;BME280;61429;52.086;5.240;2022-12-10T16:13:20;101017.0;;;2.71;80.64
50652;BME280;61429;52.086;5.240;2022-12-10T16:16:36;101020.0;;;2.72;80.5
50652;BME280;61429;52.086;5.240;2022-12-10T16:18:13;101020.0;;;2.78;80.58
50652;BME280;61429;52.086;5.240;2022-12-10T16:19:49;101019.0;;;2.72;81.05
50652;BME280;61429;52.086;5.240;2022-12-10T16:21:26;101016.0;;;2.81;80.66
50652;BME280;61429;52.086;5.240;2022-12-10T16:24:39;101017.0;;;2.83;80.69
50652;BME280;61429;52.086;5.240;2022-12-10T16:26:18;101023.0;;;2.75;80.87
50652;BME280;61429;52.086;5.240;2022-12-10T16:27:55;101016.0;;;2.74;81.12
50652;BME280;61429;52.086;5.240;2022-12-10T16:29:32;101019.0;;;2.74;81.27
50652;BME280;61429;52.086;5.240;2022-12-10T16:32:50;101019.0;;;2.76;81.2
50652;BME280;61429;52.086;5.240;2022-12-10T16:34:26;101019.0;;;2.78;81.13
50652;BME280;61429;52.086;5.240;2022-12-10T16:36:03;101018.0;;;2.82;81.17
50652;BME280;61429;52.086;5.240;2022-12-10T16:39:18;101022.0;;;2.81;81.19
50652;BME280;61429;52.086;5.240;2022-12-10T16:40:54;101022.0;;;2.83;80.97
50652;BME280;61429;52.086;5.240;2022-12-10T16:42:31;101028.0;;;2.85;81.14
50652;BME280;61429;52.086;5.240;2022-12-10T16:44:09;101030.0;;;2.94;80.8
50652;BME280;61429;52.086;5.240;2022-12-10T16:47:22;101030.0;;;2.86;80.47
50652;BME280;61429;52.086;5.240;2022-12-10T16:48:58;101031.0;;;2.85;80.58
50652;BME280;61429;52.086;5.240;2022-12-10T16:50:35;101026.0;;;2.86;80.83
50652;BME280;61429;52.086;5.240;2022-12-10T16:53:50;101026.0;;;2.91;80.47
50652;BME280;61429;52.086;5.240;2022-12-10T16:55:26;101025.0;;;2.88;80.81
50652;BME280;61429;52.086;5.240;2022-12-10T16:57:04;101030.0;;;2.93;80.49
50652;BME280;61429;52.086;5.240;2022-12-10T17:00:22;101024.0;;;2.85;80.44
50652;BME280;61429;52.086;5.240;2022-12-10T17:01:59;101024.0;;;2.78;80.84
50652;BME280;61429;52.086;5.240;2022-12-10T17:03:35;101026.0;;;2.71;81.23
50652;BME280;61429;52.086;5.240;2022-12-10T17:10:08;101032.0;;;2.91;81.0
50652;BME280;61429;52.086;5.240;2022-12-10T17:11:48;101034.0;;;2.98;80.86
50652;BME280;61429;52.086;5.240;2022-12-10T17:13:26;101037.0;;;2.97;80.91
50652;BME280;61429;52.086;5.240;2022-12-10T17:16:48;101037.0;;;2.86;81.36
50652;BME280;61429;52.086;5.240;2022-12-10T17:18:24;101035.0;;;2.89;81.2
50652;BME280;61429;52.086;5.240;2022-12-10T17:20:01;101039.0;;;2.83;81.37
50652;BME280;61429;52.086;5.240;2022-12-10T17:23:15;101036.0;;;2.83;81.25
50652;BME280;61429;52.086;5.240;2022-12-10T17:24:52;101038.0;;;2.71;81.83
50652;BME280;61429;52.086;5.240;2022-12-10T17:26:30;101035.0;;;2.81;81.52
50652;BME280;61429;52.086;5.240;2022-12-10T17:28:12;101035.0;;;2.89;81.38
50652;BME280;61429;52.086;5.240;2022-12-10T17:31:30;101030.0;;;2.87;81.41
50652;BME280;61429;52.086;5.240;2022-12-10T17:33:10;101030.0;;;2.75;81.73
50652;BME280;61429;52.086;5.240;2022-12-10T17:34:47;101031.0;;;2.83;81.7
50652;BME280;61429;52.086;5.240;2022-12-10T17:36:24;101027.0;;;2.8;81.94
50652;BME280;61429;52.086;5.240;2022-12-10T17:39:37;101030.0;;;2.86;81.98
50652;BME280;61429;52.086;5.240;2022-12-10T17:41:15;101030.0;;;2.9;81.86
50652;BME280;61429;52.086;5.240;2022-12-10T17:42:52;101035.0;;;2.91;81.62
50652;BME280;61429;52.086;5.240;2022-12-10T17:46:08;101036.0;;;2.81;82.04
50652;BME280;61429;52.086;5.240;2022-12-10T17:47:46;101032.0;;;2.83;82.18
50652;BME280;61429;52.086;5.240;2022-12-10T17:49:22;101028.0;;;2.88;81.88
50652;BME280;61429;52.086;5.240;2022-12-10T17:52:34;101027.0;;;2.85;81.91
50652;BME280;61429;52.086;5.240;2022-12-10T17:54:11;101027.0;;;2.71;82.14
50652;BME280;61429;52.086;5.240;2022-12-10T17:55:53;101024.0;;;2.78;82.2
50652;BME280;61429;52.086;5.240;2022-12-10T17:57:31;101030.0;;;2.84;82.36
50652;BME280;61429;52.086;5.240;2022-12-10T18:00:48;101030.0;;;2.77;82.1
50652;BME280;61429;52.086;5.240;2022-12-10T18:02:25;101032.0;;;2.64;82.68
50652;BME280;61429;52.086;5.240;2022-12-10T18:04:02;101031.0;;;2.67;82.7
50652;BME280;61429;52.086;5.240;2022-12-10T18:07:17;101033.0;;;2.67;82.72
50652;BME280;61429;52.086;5.240;2022-12-10T18:08:54;101033.0;;;2.46;83.42
50652;BME280;61429;52.086;5.240;2022-12-10T18:10:33;101034.0;;;2.48;83.48
50652;BME280;61429;52.086;5.240;2022-12-10T18:12:10;101030.0;;;2.59;83.24
50652;BME280;61429;52.086;5.240;2022-12-10T18:15:26;101030.0;;;2.62;83.23
50652;BME280;61429;52.086;5.240;2022-12-10T18:17:09;101034.0;;;2.58;83.38
50652;BME280;61429;52.086;5.240;2022-12-10T18:18:47;101038.0;;;2.48;83.66
50652;BME280;61429;52.086;5.240;2022-12-10T18:20:26;101035.0;;;2.48;83.77
50652;BME280;61429;52.086;5.240;2022-12-10T18:23:42;101039.0;;;2.46;83.83
50652;BME280;61429;52.086;5.240;2022-12-10T18:25:20;101039.0;;;2.5;83.56
50652;BME280;61429;52.086;5.240;2022-12-10T18:26:58;101035.0;;;2.46;84.08
50652;BME280;61429;52.086;5.240;2022-12-10T18:30:25;101032.0;;;2.56;83.83
50652;BME280;61429;52.086;5.240;2022-12-10T18:32:01;101030.0;;;2.66;83.15
50652;BME280;61429;52.086;5.240;2022-12-10T18:33:39;101030.0;;;2.74;83.16
50652;BME280;61429;52.086;5.240;2022-12-10T18:35:18;101030.0;;;2.64;82.95
50652;BME280;61429;52.086;5.240;2022-12-10T18:38:32;101022.0;;;2.6;83.5
50652;BME280;61429;52.086;5.240;2022-12-10T18:40:14;101025.0;;;2.71;83.05
50652;BME280;61429;52.086;5.240;2022-12-10T18:43:28;101025.0;;;2.81;82.58
50652;BME280;61429;52.086;5.240;2022-12-10T18:46:43;101025.0;;;2.87;82.52